Time;durP1;ratioP1;P1;durP2;ratioP2;P2;SDS_P1;SDS_P2;PMS_P1;PMS_P2;Temp;Humidity;BMP_temperature;BMP_pressure;BME280_temperature;BME280_humidity;BME280_pressure;Samples;Min_cycle;Max_cycle;Signal;HPM_P1;HPM_P2
2023/10/16 00:02:13;;;;;;;;;;;17.60;55.10;;;;;;4951975;28;87442;-44
2023/10/16 00:04:45;;;;;;;;;;;17.50;55.10;;;;;;4953797;28;89183;-43
2023/10/16 00:07:14;;;;;;;;;;;17.50;55.00;;;;;;4952267;28;88553;-43
2023/10/16 00:09:43;;;;;;;;;;;17.50;54.90;;;;;;4952677;28;87101;-42
2023/10/16 00:12:09;;;;;;;;;;;17.50;54.90;;;;;;4956395;28;88718;-43
2023/10/16 00:14:37;;;;;;;;;;;17.50;55.00;;;;;;4954484;28;87206;-44
2023/10/16 00:17:08;;;;;;;;;;;17.50;55.00;;;;;;4951813;28;87868;-43
2023/10/16 00:19:37;;;;;;;;;;;17.50;55.00;;;;;;4952372;28;87950;-43
2023/10/16 00:22:18;;;;;;;;;;;17.50;55.00;;;;;;4954386;28;86330;-43
2023/10/16 00:24:47;;;;;;;;;;;17.40;54.90;;;;;;4953007;28;87117;-43
2023/10/16 00:27:14;;;;;;;;;;;17.40;54.90;;;;;;4952055;28;88582;-42
2023/10/16 00:29:41;;;;;;;;;;;17.40;54.80;;;;;;4950216;28;88186;-42
2023/10/16 00:32:07;;;;;;;;;;;17.40;54.60;;;;;;4953736;28;89914;-43
2023/10/16 00:34:33;;;;;;;;;;;17.40;54.70;;;;;;4954272;28;89796;-43
2023/10/16 00:37:01;;;;;;;;;;;17.40;54.50;;;;;;4952956;28;87764;-42
2023/10/16 00:39:28;;;;;;;;;;;17.30;54.40;;;;;;4953160;28;88029;-44
2023/10/16 00:41:57;;;;;;;;;;;17.30;54.40;;;;;;4957318;28;87200;-43
2023/10/16 00:44:23;;;;;;;;;;;17.30;54.40;;;;;;4954651;28;88073;-43
2023/10/16 00:46:49;;;;;;;;;;;17.30;54.40;;;;;;4957189;28;87291;-45
2023/10/16 00:49:18;;;;;;;;;;;17.30;54.40;;;;;;4955959;28;87338;-43
2023/10/16 00:51:45;;;;;;;;;;;17.30;54.30;;;;;;4955292;28;87398;-42
2023/10/16 00:54:18;;;;;;;;;;;17.30;54.40;;;;;;4956356;28;89453;-44
2023/10/16 00:56:44;;;;;;;;;;;17.30;54.40;;;;;;4957269;28;87708;-43
2023/10/16 00:59:15;;;;;;;;;;;17.20;54.30;;;;;;4955955;28;88045;-42
2023/10/16 01:01:43;;;;;;;;;;;17.20;54.30;;;;;;4956659;28;87065;-43
2023/10/16 01:04:09;;;;;;;;;;;17.20;54.20;;;;;;4953841;28;89418;-43
2023/10/16 01:06:40;;;;;;;;;;;17.20;54.10;;;;;;4957016;28;88226;-42
2023/10/16 01:09:09;;;;;;;;;;;17.20;54.10;;;;;;4955770;28;87079;-43
2023/10/16 01:11:37;;;;;;;;;;;17.10;54.10;;;;;;4955137;28;87146;-43
2023/10/16 01:14:04;;;;;;;;;;;17.10;54.10;;;;;;4956970;28;88083;-44
2023/10/16 01:16:29;;;;;;;;;;;17.10;54.30;;;;;;4953940;28;87115;-43
2023/10/16 01:18:57;;;;;;;;;;;17.10;54.20;;;;;;4958760;28;88021;-43
2023/10/16 01:21:23;;;;;;;;;;;17.10;54.10;;;;;;4955392;28;87242;-43
2023/10/16 01:23:51;;;;;;;;;;;17.10;54.20;;;;;;4955160;28;87422;-43
2023/10/16 01:26:16;;;;;;;;;;;17.10;54.20;;;;;;4956094;28;89556;-43
2023/10/16 01:28:42;;;;;;;;;;;17.00;54.10;;;;;;4957229;28;87240;-43
2023/10/16 01:31:07;;;;;;;;;;;17.00;54.00;;;;;;4953916;28;87362;-43
2023/10/16 01:33:33;;;;;;;;;;;17.00;54.00;;;;;;4956174;28;89366;-43
2023/10/16 01:35:59;;;;;;;;;;;17.00;53.90;;;;;;4955447;28;86844;-43
2023/10/16 01:38:27;;;;;;;;;;;17.00;53.90;;;;;;4958120;28;87111;-43
2023/10/16 01:41:05;;;;;;;;;;;17.00;54.10;;;;;;4955963;28;87152;-43
2023/10/16 01:43:34;;;;;;;;;;;17.00;54.10;;;;;;4954853;28;88046;-43
2023/10/16 01:46:09;;;;;;;;;;;17.00;54.00;;;;;;4955017;28;87992;-43
2023/10/16 01:48:37;;;;;;;;;;;17.00;54.20;;;;;;4953377;28;87567;-43
2023/10/16 01:51:05;;;;;;;;;;;16.90;54.00;;;;;;4955251;28;87245;-43
2023/10/16 01:53:36;;;;;;;;;;;16.90;54.20;;;;;;4954123;28;89013;-42
2023/10/16 01:56:12;;;;;;;;;;;16.90;54.20;;;;;;4954216;28;87091;-43
2023/10/16 01:58:38;;;;;;;;;;;16.90;54.00;;;;;;4956145;28;88836;-44
2023/10/16 02:01:04;;;;;;;;;;;16.90;54.60;;;;;;4957787;28;87460;-44
2023/10/16 02:03:29;;;;;;;;;;;16.90;54.00;;;;;;4954678;28;87435;-42
2023/10/16 02:05:55;;;;;;;;;;;16.90;54.20;;;;;;4955663;28;87523;-43
2023/10/16 02:08:21;;;;;;;;;;;16.90;54.20;;;;;;4952698;28;88090;-43
2023/10/16 02:10:48;;;;;;;;;;;16.80;54.10;;;;;;4956504;28;88387;-43
2023/10/16 02:13:14;;;;;;;;;;;16.80;54.20;;;;;;4955549;28;88007;-43
2023/10/16 02:15:39;;;;;;;;;;;16.80;54.20;;;;;;4954185;28;87290;-43
2023/10/16 02:18:06;;;;;;;;;;;16.80;54.10;;;;;;4955054;28;87461;-42
2023/10/16 02:20:36;;;;;;;;;;;16.70;54.20;;;;;;4954828;28;88456;-43
2023/10/16 02:23:07;;;;;;;;;;;16.70;54.30;;;;;;4955972;28;87197;-43
2023/10/16 02:25:34;;;;;;;;;;;16.70;54.30;;;;;;4953469;28;88330;-43
2023/10/16 02:28:00;;;;;;;;;;;16.70;54.30;;;;;;4956050;28;87167;-46
2023/10/16 02:32:53;;;;;;;;;;;16.70;54.40;;;;;;4954457;28;88249;-42
2023/10/16 02:35:22;;;;;;;;;;;16.70;54.40;;;;;;4953049;28;87202;-43
2023/10/16 02:37:53;;;;;;;;;;;16.60;54.40;;;;;;4953174;28;87402;-43
2023/10/16 02:40:25;;;;;;;;;;;16.60;54.50;;;;;;4956505;28;87897;-43
2023/10/16 02:42:55;;;;;;;;;;;16.60;54.50;;;;;;4953020;28;87152;-43
2023/10/16 02:45:24;;;;;;;;;;;16.60;54.50;;;;;;4956435;28;87789;-43
2023/10/16 02:47:51;;;;;;;;;;;16.60;54.40;;;;;;4953821;28;87095;-43
2023/10/16 02:50:16;;;;;;;;;;;16.60;54.20;;;;;;4954528;28;87412;-45
2023/10/16 02:52:42;;;;;;;;;;;16.60;54.10;;;;;;4954502;28;89447;-43
2023/10/16 02:55:10;;;;;;;;;;;16.50;54.00;;;;;;4953065;28;87156;-43
2023/10/16 02:57:40;;;;;;;;;;;16.50;53.70;;;;;;4951835;28;89105;-43
2023/10/16 03:00:07;;;;;;;;;;;16.50;54.00;;;;;;4953689;28;89758;-43
2023/10/16 03:02:34;;;;;;;;;;;16.50;53.90;;;;;;4953497;28;87375;-43
2023/10/16 03:05:33;;;;;;;;;;;16.40;53.60;;;;;;4954687;28;88465;-44
2023/10/16 03:07:52;;;;;;;;;;;16.50;53.60;;;;;;4955595;28;89022;-43
2023/10/16 03:10:20;;;;;;;;;;;16.40;53.80;;;;;;4952325;28;86999;-43
2023/10/16 03:12:52;;;;;;;;;;;16.40;53.70;;;;;;4954912;28;88009;-43
2023/10/16 03:15:27;;;;;;;;;;;16.40;53.90;;;;;;4955527;28;88125;-43
2023/10/16 03:17:54;;;;;;;;;;;16.40;53.70;;;;;;4955677;28;86990;-43
2023/10/16 03:20:21;;;;;;;;;;;16.40;53.70;;;;;;4952206;28;89438;-43
2023/10/16 03:22:48;;;;;;;;;;;16.30;53.60;;;;;;4953470;28;88196;-43
2023/10/16 03:25:59;;;;;;;;;;;16.30;53.70;;;;;;4953830;28;88638;-43
2023/10/16 03:27:59;;;;;;;;;;;16.30;53.80;;;;;;4947356;28;87526;-42
2023/10/16 03:30:27;;;;;;;;;;;16.30;53.80;;;;;;4955633;28;87092;-43
2023/10/16 03:32:53;;;;;;;;;;;16.30;53.80;;;;;;4954075;28;89374;-43
2023/10/16 03:35:25;;;;;;;;;;;16.30;53.60;;;;;;4951962;28;87204;-43
2023/10/16 03:37:52;;;;;;;;;;;16.20;53.70;;;;;;4952593;28;89086;-43
2023/10/16 03:40:19;;;;;;;;;;;16.20;53.60;;;;;;4953952;28;87344;-42
2023/10/16 03:42:45;;;;;;;;;;;16.20;53.50;;;;;;4953823;28;87592;-43
2023/10/16 03:45:13;;;;;;;;;;;16.20;53.50;;;;;;4954134;28;87544;-43
2023/10/16 03:47:38;;;;;;;;;;;16.20;53.50;;;;;;4953607;28;90611;-43
2023/10/16 03:50:05;;;;;;;;;;;16.20;53.50;;;;;;4955120;28;87005;-44
2023/10/16 03:52:30;;;;;;;;;;;16.20;53.60;;;;;;4953953;28;88157;-43
2023/10/16 03:54:56;;;;;;;;;;;16.20;53.40;;;;;;4953178;28;87145;-43
2023/10/16 03:57:22;;;;;;;;;;;16.20;53.50;;;;;;4953033;28;87179;-43
2023/10/16 03:59:49;;;;;;;;;;;16.10;53.20;;;;;;4952287;28;89489;-43
2023/10/16 04:02:19;;;;;;;;;;;16.10;53.00;;;;;;4954701;28;87361;-43
2023/10/16 04:04:46;;;;;;;;;;;16.10;53.20;;;;;;4952243;28;87875;-42
2023/10/16 04:07:14;;;;;;;;;;;16.10;53.30;;;;;;4953016;28;89322;-43
2023/10/16 04:09:49;;;;;;;;;;;16.10;53.30;;;;;;4953279;28;87205;-44
2023/10/16 04:12:17;;;;;;;;;;;16.00;53.30;;;;;;4953526;28;88690;-43
2023/10/16 04:14:50;;;;;;;;;;;16.00;53.30;;;;;;4953683;28;87166;-44
2023/10/16 04:17:16;;;;;;;;;;;16.00;53.20;;;;;;4952404;28;87515;-43
2023/10/16 04:19:59;;;;;;;;;;;16.00;53.40;;;;;;4953962;28;88512;-42
2023/10/16 04:22:25;;;;;;;;;;;16.00;53.20;;;;;;4953142;28;87537;-42
2023/10/16 04:24:54;;;;;;;;;;;16.00;53.20;;;;;;4952160;28;87396;-42
2023/10/16 04:27:44;;;;;;;;;;;16.00;53.20;;;;;;4954022;28;89236;-43
2023/10/16 04:38:30;;;;;;;;;;;15.90;53.20;;;;;;4950912;28;89165;-43
2023/10/16 04:44:22;;;;;;;;;;;15.90;53.10;;;;;;4929637;28;88427;-42
2023/10/16 04:47:00;;;;;;;;;;;15.90;53.10;;;;;;4950326;28;87913;-43
2023/10/16 04:49:28;;;;;;;;;;;15.80;53.20;;;;;;4951164;28;89939;-43
2023/10/16 04:52:01;;;;;;;;;;;15.90;53.20;;;;;;4954354;28;87193;-43
2023/10/16 04:54:37;;;;;;;;;;;15.90;53.20;;;;;;4952374;28;87252;-44
2023/10/16 04:59:37;;;;;;;;;;;15.90;53.20;;;;;;4953934;28;87307;-44
2023/10/16 05:02:33;;;;;;;;;;;15.80;53.20;;;;;;4952628;28;89896;-43
2023/10/16 05:07:46;;;;;;;;;;;15.80;53.10;;;;;;4951688;28;90256;-43
2023/10/16 05:10:17;;;;;;;;;;;15.80;53.20;;;;;;4951157;28;89519;-43
2023/10/16 05:13:22;;;;;;;;;;;15.80;53.00;;;;;;4951120;28;87181;-42
2023/10/16 05:15:51;;;;;;;;;;;15.80;53.10;;;;;;4951863;28;87407;-43
2023/10/16 05:18:42;;;;;;;;;;;15.70;53.10;;;;;;4956795;28;88441;-43
2023/10/16 05:21:40;;;;;;;;;;;15.70;53.00;;;;;;4953030;28;87137;-43
2023/10/16 06:15:52;;;;;;;;;;;15.40;52.60;;;;;;4952518;28;87312;-43
2023/10/16 06:18:18;;;;;;;;;;;15.40;52.70;;;;;;4952953;28;86390;-43
2023/10/16 06:20:44;;;;;;;;;;;15.40;52.70;;;;;;4954180;28;87413;-43
2023/10/16 06:23:11;;;;;;;;;;;15.40;52.70;;;;;;4956752;28;87983;-43
2023/10/16 06:25:37;;;;;;;;;;;15.40;52.70;;;;;;4953957;28;88086;-42
2023/10/16 06:28:08;;;;;;;;;;;15.40;52.80;;;;;;4953210;28;88316;-42
2023/10/16 06:30:37;;;;;;;;;;;15.40;52.80;;;;;;4955108;28;89659;-43
2023/10/16 06:33:04;;;;;;;;;;;15.40;52.80;;;;;;4959282;28;87010;-43
2023/10/16 06:35:30;;;;;;;;;;;15.40;52.80;;;;;;4953434;28;87956;-42
2023/10/16 06:37:55;;;;;;;;;;;15.40;52.80;;;;;;4953085;28;87165;-42
2023/10/16 06:40:27;;;;;;;;;;;15.40;52.80;;;;;;4951833;28;90721;-43
2023/10/16 06:43:12;;;;;;;;;;;15.30;52.70;;;;;;4955382;28;86499;-43
2023/10/16 06:45:42;;;;;;;;;;;15.30;52.70;;;;;;4955003;28;87018;-42
2023/10/16 06:48:08;;;;;;;;;;;15.30;52.80;;;;;;4951365;28;87238;-43
2023/10/16 06:50:40;;;;;;;;;;;15.30;52.70;;;;;;4951890;28;88926;-43
2023/10/16 06:53:05;;;;;;;;;;;15.30;52.70;;;;;;4955930;28;87185;-42
2023/10/16 06:55:31;;;;;;;;;;;15.30;52.70;;;;;;4957710;28;87802;-43
2023/10/16 06:57:56;;;;;;;;;;;15.30;52.70;;;;;;4954940;28;87164;-43
2023/10/16 07:00:27;;;;;;;;;;;15.30;52.80;;;;;;4952546;28;87225;-42
2023/10/16 07:02:55;;;;;;;;;;;15.30;52.80;;;;;;4952272;28;87977;-42
2023/10/16 07:05:22;;;;;;;;;;;15.30;52.70;;;;;;4955187;28;87435;-43
2023/10/16 07:07:48;;;;;;;;;;;15.20;52.80;;;;;;4953337;28;87386;-42
2023/10/16 07:10:14;;;;;;;;;;;15.20;52.90;;;;;;4952052;28;88837;-43
2023/10/16 07:15:29;;;;;;;;;;;15.20;52.80;;;;;;4954093;28;88062;-42
2023/10/16 07:17:55;;;;;;;;;;;15.20;52.80;;;;;;4954983;28;89300;-42
2023/10/16 07:20:30;;;;;;;;;;;15.20;52.90;;;;;;4954407;28;87408;-42
2023/10/16 07:22:59;;;;;;;;;;;15.20;52.90;;;;;;4953969;28;88213;-42
2023/10/16 07:25:29;;;;;;;;;;;15.20;52.90;;;;;;4954260;28;89038;-43
2023/10/16 07:27:57;;;;;;;;;;;15.10;52.80;;;;;;4946878;28;89089;-42
2023/10/16 07:30:27;;;;;;;;;;;15.10;52.90;;;;;;4953764;28;89150;-42
2023/10/16 07:32:54;;;;;;;;;;;15.10;52.90;;;;;;4953356;28;86386;-42
2023/10/16 07:35:21;;;;;;;;;;;15.10;52.80;;;;;;4954105;28;87499;-42
2023/10/16 07:37:53;;;;;;;;;;;15.10;52.90;;;;;;4954352;28;88269;-43
2023/10/16 07:40:23;;;;;;;;;;;15.10;52.80;;;;;;4955476;28;88044;-42
2023/10/16 07:42:49;;;;;;;;;;;15.10;52.70;;;;;;4952941;28;89420;-44
2023/10/16 07:45:15;;;;;;;;;;;15.20;52.90;;;;;;4953545;28;87864;-42
2023/10/16 07:47:44;;;;;;;;;;;15.20;52.60;;;;;;4954371;28;87420;-42
2023/10/16 07:50:11;;;;;;;;;;;15.10;52.50;;;;;;4951753;28;88015;-42
2023/10/16 07:52:36;;;;;;;;;;;15.10;52.40;;;;;;4953632;28;87216;-42
2023/10/16 07:55:03;;;;;;;;;;;15.10;52.50;;;;;;4952790;28;87743;-42
2023/10/16 07:57:29;;;;;;;;;;;15.10;52.40;;;;;;4954572;28;87301;-42
2023/10/16 07:59:58;;;;;;;;;;;15.10;52.40;;;;;;4957686;28;87180;-42
2023/10/16 08:02:24;;;;;;;;;;;15.10;52.30;;;;;;4948268;28;88036;-42
2023/10/16 08:04:52;;;;;;;;;;;15.10;52.40;;;;;;4951132;28;90154;-43
2023/10/16 08:07:18;;;;;;;;;;;15.10;52.30;;;;;;4953521;28;88286;-43
2023/10/16 08:12:18;;;;;;;;;;;15.10;52.30;;;;;;4953970;28;89036;-43
2023/10/16 08:14:45;;;;;;;;;;;15.00;52.30;;;;;;4950615;28;88265;-42
2023/10/16 08:17:23;;;;;;;;;;;15.00;52.30;;;;;;4952449;28;88318;-42
2023/10/16 08:19:49;;;;;;;;;;;15.00;52.40;;;;;;4951305;28;87200;-42
2023/10/16 08:22:15;;;;;;;;;;;15.00;52.40;;;;;;4954897;28;87454;-42
2023/10/16 08:24:43;;;;;;;;;;;15.00;52.40;;;;;;4958194;28;87237;-42
2023/10/16 08:27:15;;;;;;;;;;;15.00;52.50;;;;;;4953009;28;87388;-42
2023/10/16 08:29:51;;;;;;;;;;;15.00;53.10;;;;;;4949934;28;91171;-42
2023/10/16 08:35:01;;;;;;;;;;;15.00;52.20;;;;;;4956627;28;87164;-42
2023/10/16 08:37:26;;;;;;;;;;;15.00;52.40;;;;;;4951800;28;88155;-43
2023/10/16 08:39:52;;;;;;;;;;;15.00;52.50;;;;;;4948720;28;87187;-42
2023/10/16 08:42:21;;;;;;;;;;;14.90;52.20;;;;;;4951140;28;87588;-42
2023/10/16 08:45:14;;;;;;;;;;;14.90;52.20;;;;;;4957204;28;88052;-42
2023/10/16 08:47:35;;;;;;;;;;;14.90;52.90;;;;;;4953683;28;86877;-42
2023/10/16 08:50:04;;;;;;;;;;;14.90;52.20;;;;;;4953730;28;88096;-43
2023/10/16 08:52:36;;;;;;;;;;;14.90;52.20;;;;;;4955392;28;87705;-42
2023/10/16 08:55:14;;;;;;;;;;;15.00;52.20;;;;;;4952305;28;88152;-42
2023/10/16 08:57:40;;;;;;;;;;;14.90;52.20;;;;;;4953147;28;89528;-42
2023/10/16 09:00:10;;;;;;;;;;;14.90;52.10;;;;;;4954153;28;87230;-42
2023/10/16 09:02:38;;;;;;;;;;;14.90;52.20;;;;;;4956882;28;88788;-42
2023/10/16 09:05:08;;;;;;;;;;;14.90;52.10;;;;;;4954025;28;88333;-43
2023/10/16 09:07:34;;;;;;;;;;;14.90;52.10;;;;;;4956102;28;88847;-42
2023/10/16 09:10:02;;;;;;;;;;;14.90;52.00;;;;;;4953806;28;89604;-44
2023/10/16 09:12:27;;;;;;;;;;;14.90;52.10;;;;;;4956393;28;86333;-42
2023/10/16 09:14:54;;;;;;;;;;;14.90;52.20;;;;;;4955905;28;87333;-42
2023/10/16 09:17:23;;;;;;;;;;;14.90;52.20;;;;;;4953222;28;88140;-42
2023/10/16 09:19:53;;;;;;;;;;;14.90;52.30;;;;;;4954911;28;88229;-42
2023/10/16 09:22:20;;;;;;;;;;;14.80;52.40;;;;;;4955833;28;89803;-42
2023/10/16 09:24:51;;;;;;;;;;;14.90;52.40;;;;;;4956837;28;87941;-42
2023/10/16 09:27:18;;;;;;;;;;;14.80;52.40;;;;;;4958609;28;87723;-42
2023/10/16 09:29:45;;;;;;;;;;;14.90;52.20;;;;;;4960051;28;87431;-43
2023/10/16 09:32:10;;;;;;;;;;;14.80;52.20;;;;;;4954028;28;87247;-43
2023/10/16 09:34:36;;;;;;;;;;;14.80;52.30;;;;;;4955235;28;87797;-42
2023/10/16 09:37:20;;;;;;;;;;;14.90;52.30;;;;;;4953200;28;87171;-43
2023/10/16 09:39:48;;;;;;;;;;;14.80;52.40;;;;;;4954645;28;87472;-42
2023/10/16 09:42:14;;;;;;;;;;;14.80;52.40;;;;;;4956508;28;87618;-43
2023/10/16 09:44:56;;;;;;;;;;;14.80;52.40;;;;;;4954377;28;89855;-42
2023/10/16 09:47:26;;;;;;;;;;;14.80;52.40;;;;;;4958446;28;87883;-42
2023/10/16 09:49:55;;;;;;;;;;;14.80;52.40;;;;;;4956051;28;87937;-42
2023/10/16 09:52:22;;;;;;;;;;;14.80;52.50;;;;;;4958274;28;87870;-43
2023/10/16 09:54:48;;;;;;;;;;;14.80;52.50;;;;;;4950663;28;88846;-42
2023/10/16 09:57:17;;;;;;;;;;;14.80;52.50;;;;;;4957697;28;89427;-43
2023/10/16 09:59:43;;;;;;;;;;;14.80;52.40;;;;;;4954688;28;87153;-42
2023/10/16 10:02:19;;;;;;;;;;;14.80;52.50;;;;;;4957012;28;87511;-42
2023/10/16 10:04:54;;;;;;;;;;;14.80;52.50;;;;;;4953955;28;88199;-42
2023/10/16 10:07:22;;;;;;;;;;;14.80;52.40;;;;;;4954802;28;88050;-43
2023/10/16 10:09:57;;;;;;;;;;;14.80;52.40;;;;;;4955563;28;88054;-42
2023/10/16 10:12:42;;;;;;;;;;;14.80;52.40;;;;;;4954466;28;89600;-42
2023/10/16 10:15:14;;;;;;;;;;;14.80;52.40;;;;;;4957476;28;87766;-42
2023/10/16 10:17:41;;;;;;;;;;;14.80;52.40;;;;;;4953842;28;89242;-42
2023/10/16 10:22:56;;;;;;;;;;;14.80;52.50;;;;;;4949336;28;88980;-43
2023/10/16 10:25:37;;;;;;;;;;;14.80;52.60;;;;;;4955060;28;88814;-42
2023/10/16 10:28:09;;;;;;;;;;;14.80;52.60;;;;;;4954727;28;86315;-44
2023/10/16 10:30:39;;;;;;;;;;;14.80;52.40;;;;;;4952030;28;87139;-42
2023/10/16 10:33:06;;;;;;;;;;;14.80;52.40;;;;;;4951576;28;88051;-42
2023/10/16 10:35:38;;;;;;;;;;;14.70;52.30;;;;;;4957423;28;88055;-42
2023/10/16 10:38:17;;;;;;;;;;;14.70;52.20;;;;;;4954147;28;88087;-42
2023/10/16 10:41:06;;;;;;;;;;;14.70;51.90;;;;;;4950018;28;88247;-43
2023/10/16 10:43:46;;;;;;;;;;;14.70;52.10;;;;;;4953668;28;87209;-42
2023/10/16 10:46:24;;;;;;;;;;;14.70;52.10;;;;;;4955060;28;90145;-43
2023/10/16 10:48:50;;;;;;;;;;;14.70;52.00;;;;;;4953294;28;87123;-42
2023/10/16 10:51:16;;;;;;;;;;;14.70;51.80;;;;;;4955713;28;89486;-43
2023/10/16 10:53:54;;;;;;;;;;;14.70;51.90;;;;;;4956027;28;86754;-42
2023/10/16 10:56:20;;;;;;;;;;;14.70;51.60;;;;;;4953544;28;87181;-42
2023/10/16 10:58:46;;;;;;;;;;;14.70;51.50;;;;;;4953434;28;87358;-42
2023/10/16 11:01:33;;;;;;;;;;;14.70;51.30;;;;;;4953700;28;88080;-42
2023/10/16 11:04:01;;;;;;;;;;;14.70;51.30;;;;;;4953797;28;88726;-42
2023/10/16 11:06:40;;;;;;;;;;;14.70;51.50;;;;;;4954960;28;89208;-44
2023/10/16 11:09:12;;;;;;;;;;;14.70;51.40;;;;;;4950315;28;87187;-42
2023/10/16 11:11:44;;;;;;;;;;;14.70;51.50;;;;;;4955548;28;88851;-42
2023/10/16 11:14:12;;;;;;;;;;;14.70;51.40;;;;;;4950569;28;89444;-42
2023/10/16 11:16:45;;;;;;;;;;;14.70;51.30;;;;;;4954212;28;87214;-42
2023/10/16 11:19:11;;;;;;;;;;;14.70;51.40;;;;;;4954159;28;88750;-42
2023/10/16 11:21:43;;;;;;;;;;;14.70;51.40;;;;;;4954488;28;88148;-43
2023/10/16 11:24:10;;;;;;;;;;;14.70;51.10;;;;;;4953779;28;87548;-43
2023/10/16 11:26:38;;;;;;;;;;;14.70;51.20;;;;;;4950946;28;90976;-42
2023/10/16 11:29:04;;;;;;;;;;;14.70;51.00;;;;;;4953939;28;87025;-42
2023/10/16 11:31:30;;;;;;;;;;;14.70;51.00;;;;;;4952088;28;89106;-43
2023/10/16 11:34:03;;;;;;;;;;;14.70;51.00;;;;;;4953675;28;88375;-43
2023/10/16 11:36:29;;;;;;;;;;;14.70;51.10;;;;;;4948779;28;87331;-42
2023/10/16 11:39:01;;;;;;;;;;;14.60;50.80;;;;;;4955486;28;88010;-42
2023/10/16 11:41:28;;;;;;;;;;;14.60;50.90;;;;;;4951204;28;89126;-42
2023/10/16 11:43:55;;;;;;;;;;;14.60;51.00;;;;;;4955483;28;86495;-42
2023/10/16 11:46:31;;;;;;;;;;;14.60;50.90;;;;;;4952175;28;87831;-43
2023/10/16 11:48:57;;;;;;;;;;;14.60;50.90;;;;;;4953017;28;86948;-42
2023/10/16 11:51:25;;;;;;;;;;;14.60;51.10;;;;;;4952856;28;88362;-42
2023/10/16 11:53:56;;;;;;;;;;;14.60;50.90;;;;;;4949267;28;88112;-43
2023/10/16 11:56:21;;;;;;;;;;;14.60;50.80;;;;;;4953436;28;87788;-42
2023/10/16 11:58:47;;;;;;;;;;;14.60;50.70;;;;;;4953490;28;87329;-43
2023/10/16 12:01:13;;;;;;;;;;;14.70;50.70;;;;;;4952392;28;87190;-42
2023/10/16 12:03:39;;;;;;;;;;;14.60;50.60;;;;;;4950318;28;91442;-43
2023/10/16 12:06:07;;;;;;;;;;;14.60;50.70;;;;;;4959810;28;87320;-42
2023/10/16 12:08:33;;;;;;;;;;;14.60;50.80;;;;;;4955299;28;86406;-42
2023/10/16 12:11:01;;;;;;;;;;;14.60;51.00;;;;;;4954121;28;88303;-43
2023/10/16 12:13:27;;;;;;;;;;;14.60;51.00;;;;;;4949738;28;89496;-42
2023/10/16 12:15:53;;;;;;;;;;;14.60;51.00;;;;;;4954187;28;88029;-44
2023/10/16 12:18:21;;;;;;;;;;;14.50;51.00;;;;;;4951739;28;88343;-42
2023/10/16 12:20:46;;;;;;;;;;;14.50;51.00;;;;;;4952327;28;87169;-43
2023/10/16 12:23:12;;;;;;;;;;;14.50;50.70;;;;;;4954276;28;87027;-42
2023/10/16 12:25:39;;;;;;;;;;;14.50;50.40;;;;;;4954942;28;87142;-42
2023/10/16 12:28:08;;;;;;;;;;;14.50;50.90;;;;;;4955042;28;87111;-42
2023/10/16 12:30:36;;;;;;;;;;;14.50;50.60;;;;;;4953254;28;88890;-42
2023/10/16 12:33:05;;;;;;;;;;;14.40;50.70;;;;;;4950822;28;88483;-42
2023/10/16 12:35:30;;;;;;;;;;;14.50;51.00;;;;;;4952793;28;87124;-42
2023/10/16 12:37:56;;;;;;;;;;;14.50;51.00;;;;;;4952309;28;88678;-44
2023/10/16 12:40:27;;;;;;;;;;;14.50;50.90;;;;;;4949346;28;89180;-42
2023/10/16 12:42:53;;;;;;;;;;;14.40;51.00;;;;;;4952890;28;87428;-43
2023/10/16 12:45:25;;;;;;;;;;;14.50;50.90;;;;;;4954366;28;87501;-43
2023/10/16 12:47:51;;;;;;;;;;;14.40;50.80;;;;;;4956095;28;87375;-42
2023/10/16 12:50:17;;;;;;;;;;;14.50;50.80;;;;;;4952912;28;88743;-44
2023/10/16 12:52:44;;;;;;;;;;;14.50;50.70;;;;;;4951241;28;89846;-43
2023/10/16 12:55:10;;;;;;;;;;;14.50;50.50;;;;;;4954655;28;87105;-42
2023/10/16 12:57:36;;;;;;;;;;;14.50;50.20;;;;;;4954192;28;88897;-42
2023/10/16 13:00:13;;;;;;;;;;;14.50;50.40;;;;;;4956193;28;88189;-42
2023/10/16 13:02:42;;;;;;;;;;;14.50;50.60;;;;;;4952988;28;87428;-42
2023/10/16 13:05:13;;;;;;;;;;;14.50;50.30;;;;;;4948221;28;88558;-42
2023/10/16 13:07:48;;;;;;;;;;;14.50;50.10;;;;;;4949111;28;89466;-43
2023/10/16 13:10:16;;;;;;;;;;;14.50;50.00;;;;;;4956775;28;87497;-42
2023/10/16 13:12:44;;;;;;;;;;;14.50;49.90;;;;;;4953193;28;88476;-42
2023/10/16 13:15:10;;;;;;;;;;;14.50;49.70;;;;;;4951868;28;87261;-42
2023/10/16 13:17:36;;;;;;;;;;;14.50;49.70;;;;;;4951158;28;87840;-43
2023/10/16 13:20:04;;;;;;;;;;;14.50;50.00;;;;;;4953755;28;87606;-42
2023/10/16 13:22:31;;;;;;;;;;;14.40;50.10;;;;;;4952109;28;86437;-42
2023/10/16 13:24:56;;;;;;;;;;;14.40;50.00;;;;;;4951595;28;88192;-42
2023/10/16 13:27:22;;;;;;;;;;;14.40;50.20;;;;;;4954373;28;88134;-42
2023/10/16 13:29:48;;;;;;;;;;;14.40;50.20;;;;;;4952633;28;88684;-42
2023/10/16 13:32:14;;;;;;;;;;;14.40;50.20;;;;;;4954085;28;89997;-42
2023/10/16 13:34:39;;;;;;;;;;;14.50;49.80;;;;;;4951766;28;87193;-42
2023/10/16 13:37:11;;;;;;;;;;;14.50;49.80;;;;;;4955630;28;87564;-42
2023/10/16 13:39:39;;;;;;;;;;;14.40;49.90;;;;;;4952961;28;88142;-42
2023/10/16 13:42:08;;;;;;;;;;;14.40;50.00;;;;;;4952947;28;87306;-43
2023/10/16 13:44:35;;;;;;;;;;;14.40;49.80;;;;;;4950996;28;88045;-42
2023/10/16 13:47:05;;;;;;;;;;;14.50;50.00;;;;;;4953172;28;88416;-42
2023/10/16 13:49:41;;;;;;;;;;;14.50;49.60;;;;;;4955931;28;86982;-42
2023/10/16 13:52:07;;;;;;;;;;;14.50;49.50;;;;;;4953636;28;87448;-42
2023/10/16 13:54:38;;;;;;;;;;;14.50;49.50;;;;;;4956695;28;88667;-42
2023/10/16 13:57:04;;;;;;;;;;;14.50;49.60;;;;;;4956663;28;89824;-42
2023/10/16 13:59:29;;;;;;;;;;;14.50;49.70;;;;;;4954139;28;87407;-42
2023/10/16 14:01:56;;;;;;;;;;;14.40;49.60;;;;;;4957513;28;88004;-42
2023/10/16 14:04:21;;;;;;;;;;;14.50;49.20;;;;;;4956861;28;88431;-43
2023/10/16 14:06:53;;;;;;;;;;;14.50;49.50;;;;;;4955119;28;88004;-42
2023/10/16 14:09:28;;;;;;;;;;;14.40;49.10;;;;;;4955760;28;87064;-42
2023/10/16 14:11:54;;;;;;;;;;;14.40;49.00;;;;;;4954727;28;87462;-42
2023/10/16 14:14:20;;;;;;;;;;;14.40;48.90;;;;;;4952960;28;87211;-42
2023/10/16 14:16:50;;;;;;;;;;;14.40;49.40;;;;;;4958005;28;87039;-42
2023/10/16 14:19:22;;;;;;;;;;;14.40;49.20;;;;;;4951491;28;89793;-42
2023/10/16 14:21:51;;;;;;;;;;;14.40;49.00;;;;;;4951299;28;87881;-42
2023/10/16 14:24:18;;;;;;;;;;;14.40;49.00;;;;;;4957294;28;88925;-42
2023/10/16 14:26:45;;;;;;;;;;;14.40;48.90;;;;;;4953842;28;87459;-42
2023/10/16 14:29:10;;;;;;;;;;;14.40;49.10;;;;;;4955211;28;87186;-43
2023/10/16 14:31:36;;;;;;;;;;;14.40;48.90;;;;;;4952945;28;87576;-43
2023/10/16 14:34:05;;;;;;;;;;;14.40;49.00;;;;;;4954949;28;87984;-43
2023/10/16 14:36:31;;;;;;;;;;;14.50;49.10;;;;;;4958344;28;86281;-42
2023/10/16 14:38:59;;;;;;;;;;;14.40;49.20;;;;;;4951828;28;88226;-42
2023/10/16 14:41:25;;;;;;;;;;;14.40;49.40;;;;;;4951620;28;87787;-42
2023/10/16 14:43:51;;;;;;;;;;;14.40;49.50;;;;;;4955789;28;88991;-42
2023/10/16 14:46:17;;;;;;;;;;;14.40;49.40;;;;;;4953056;28;87935;-42
2023/10/16 14:48:43;;;;;;;;;;;14.40;49.70;;;;;;4952949;28;87874;-42
2023/10/16 14:51:18;;;;;;;;;;;14.40;49.70;;;;;;4955017;28;87873;-42
2023/10/16 14:53:45;;;;;;;;;;;14.40;49.40;;;;;;4952932;28;87143;-42
2023/10/16 14:56:11;;;;;;;;;;;14.40;49.20;;;;;;4955132;28;87152;-43
2023/10/16 14:58:38;;;;;;;;;;;14.40;49.40;;;;;;4953714;28;88039;-44
2023/10/16 15:01:15;;;;;;;;;;;14.40;49.00;;;;;;4957798;28;86368;-43
2023/10/16 15:03:44;;;;;;;;;;;14.40;49.10;;;;;;4955170;28;88104;-43
2023/10/16 15:06:12;;;;;;;;;;;14.30;49.40;;;;;;4953999;28;87979;-42
2023/10/16 15:08:53;;;;;;;;;;;14.30;49.10;;;;;;4954751;28;88767;-43
2023/10/16 15:11:20;;;;;;;;;;;14.30;48.90;;;;;;4954348;28;88358;-44
2023/10/16 15:13:46;;;;;;;;;;;14.40;48.60;;;;;;4957398;28;88634;-42
2023/10/16 15:16:13;;;;;;;;;;;14.40;48.90;;;;;;4951796;28;87145;-42
2023/10/16 15:18:39;;;;;;;;;;;14.40;48.70;;;;;;4950884;28;87974;-42
2023/10/16 15:21:08;;;;;;;;;;;14.40;48.60;;;;;;4959710;28;88205;-42
2023/10/16 15:23:34;;;;;;;;;;;14.40;48.80;;;;;;4953438;28;88019;-42
2023/10/16 15:26:00;;;;;;;;;;;14.40;48.60;;;;;;4950852;28;90445;-42
2023/10/16 15:28:25;;;;;;;;;;;14.40;48.70;;;;;;4953619;28;87936;-42
2023/10/16 15:30:53;;;;;;;;;;;14.40;48.70;;;;;;4956210;28;87496;-42
2023/10/16 15:33:19;;;;;;;;;;;14.40;48.60;;;;;;4953295;28;89369;-42
2023/10/16 15:35:48;;;;;;;;;;;14.40;48.90;;;;;;4954544;28;87256;-42
2023/10/16 15:38:13;;;;;;;;;;;14.40;48.90;;;;;;4950982;28;87186;-43
2023/10/16 15:40:45;;;;;;;;;;;14.40;48.90;;;;;;4949900;28;88792;-42
2023/10/16 15:43:11;;;;;;;;;;;14.40;48.80;;;;;;4956178;28;87032;-42
2023/10/16 15:45:37;;;;;;;;;;;14.40;48.90;;;;;;4952915;28;87702;-42
2023/10/16 15:48:05;;;;;;;;;;;14.30;49.10;;;;;;4954604;28;87545;-42
2023/10/16 15:50:31;;;;;;;;;;;14.30;49.20;;;;;;4955472;28;89049;-43